sensor_id;sensor_type;location;lat;lon;timestamp;P1;durP1;ratioP1;P2;durP2;ratioP2
15192;SDS011;7697;51.630;7.484;2023-02-11T00:01:15;33.55;;;21.77;;
15192;SDS011;7697;51.630;7.484;2023-02-11T00:06:21;37.30;;;23.60;;
15192;SDS011;7697;51.630;7.484;2023-02-11T00:11:25;38.25;;;22.38;;
15192;SDS011;7697;51.630;7.484;2023-02-11T00:16:29;33.03;;;20.90;;
15192;SDS011;7697;51.630;7.484;2023-02-11T00:21:31;32.47;;;21.30;;
15192;SDS011;7697;51.630;7.484;2023-02-11T00:26:35;29.33;;;20.67;;
15192;SDS011;7697;51.630;7.484;2023-02-11T00:31:36;34.58;;;21.40;;
15192;SDS011;7697;51.630;7.484;2023-02-11T00:36:38;30.10;;;20.42;;
15192;SDS011;7697;51.630;7.484;2023-02-11T00:41:42;26.95;;;19.60;;
15192;SDS011;7697;51.630;7.484;2023-02-11T00:46:43;33.75;;;21.35;;
15192;SDS011;7697;51.630;7.484;2023-02-11T00:51:45;35.00;;;20.80;;
15192;SDS011;7697;51.630;7.484;2023-02-11T00:56:48;31.13;;;20.10;;
15192;SDS011;7697;51.630;7.484;2023-02-11T01:01:50;32.37;;;19.67;;
15192;SDS011;7697;51.630;7.484;2023-02-11T01:06:51;27.83;;;18.80;;
15192;SDS011;7697;51.630;7.484;2023-02-11T01:11:54;25.83;;;18.03;;
15192;SDS011;7697;51.630;7.484;2023-02-11T01:16:56;26.00;;;18.80;;
15192;SDS011;7697;51.630;7.484;2023-02-11T01:21:58;26.70;;;18.85;;
15192;SDS011;7697;51.630;7.484;2023-02-11T01:27:01;27.20;;;17.53;;
15192;SDS011;7697;51.630;7.484;2023-02-11T01:32:03;28.17;;;18.25;;
15192;SDS011;7697;51.630;7.484;2023-02-11T01:37:04;26.77;;;18.20;;
15192;SDS011;7697;51.630;7.484;2023-02-11T01:42:08;23.90;;;16.80;;
15192;SDS011;7697;51.630;7.484;2023-02-11T01:47:15;28.20;;;17.90;;
15192;SDS011;7697;51.630;7.484;2023-02-11T01:52:18;23.97;;;17.40;;
15192;SDS011;7697;51.630;7.484;2023-02-11T01:57:25;23.38;;;15.32;;
15192;SDS011;7697;51.630;7.484;2023-02-11T02:02:31;27.20;;;18.37;;
15192;SDS011;7697;51.630;7.484;2023-02-11T02:07:38;28.25;;;18.48;;
15192;SDS011;7697;51.630;7.484;2023-02-11T02:12:47;26.63;;;16.55;;
15192;SDS011;7697;51.630;7.484;2023-02-11T02:17:53;25.87;;;16.97;;
15192;SDS011;7697;51.630;7.484;2023-02-11T02:23:20;24.67;;;16.45;;
15192;SDS011;7697;51.630;7.484;2023-02-11T02:34:28;20.55;;;14.65;;
15192;SDS011;7697;51.630;7.484;2023-02-11T02:39:35;25.50;;;16.63;;
15192;SDS011;7697;51.630;7.484;2023-02-11T02:44:38;26.00;;;16.30;;
15192;SDS011;7697;51.630;7.484;2023-02-11T02:49:41;25.93;;;15.80;;
15192;SDS011;7697;51.630;7.484;2023-02-11T02:54:46;22.10;;;14.17;;
15192;SDS011;7697;51.630;7.484;2023-02-11T03:00:12;20.80;;;13.80;;
15192;SDS011;7697;51.630;7.484;2023-02-11T03:05:22;24.05;;;14.48;;
15192;SDS011;7697;51.630;7.484;2023-02-11T03:10:31;20.97;;;13.97;;
15192;SDS011;7697;51.630;7.484;2023-02-11T03:15:37;20.95;;;14.30;;
15192;SDS011;7697;51.630;7.484;2023-02-11T03:20:43;20.40;;;14.85;;
15192;SDS011;7697;51.630;7.484;2023-02-11T03:25:49;22.20;;;14.67;;
15192;SDS011;7697;51.630;7.484;2023-02-11T03:30:55;20.53;;;14.60;;
15192;SDS011;7697;51.630;7.484;2023-02-11T03:36:07;20.27;;;14.63;;
15192;SDS011;7697;51.630;7.484;2023-02-11T03:41:14;22.45;;;14.75;;
15192;SDS011;7697;51.630;7.484;2023-02-11T03:46:18;23.90;;;15.35;;
15192;SDS011;7697;51.630;7.484;2023-02-11T03:51:25;23.02;;;15.65;;
15192;SDS011;7697;51.630;7.484;2023-02-11T03:56:29;23.98;;;15.40;;
15192;SDS011;7697;51.630;7.484;2023-02-11T04:01:35;25.58;;;16.13;;
15192;SDS011;7697;51.630;7.484;2023-02-11T04:06:38;23.02;;;15.90;;
15192;SDS011;7697;51.630;7.484;2023-02-11T04:11:40;24.75;;;17.15;;
15192;SDS011;7697;51.630;7.484;2023-02-11T04:16:41;22.63;;;15.83;;
15192;SDS011;7697;51.630;7.484;2023-02-11T04:21:45;24.33;;;17.03;;
15192;SDS011;7697;51.630;7.484;2023-02-11T04:26:46;27.05;;;18.33;;
15192;SDS011;7697;51.630;7.484;2023-02-11T04:31:48;29.23;;;19.42;;
15192;SDS011;7697;51.630;7.484;2023-02-11T04:36:51;28.30;;;17.58;;
15192;SDS011;7697;51.630;7.484;2023-02-11T04:41:53;26.95;;;18.98;;
15192;SDS011;7697;51.630;7.484;2023-02-11T04:46:54;27.65;;;18.92;;
15192;SDS011;7697;51.630;7.484;2023-02-11T04:51:58;25.53;;;19.33;;
15192;SDS011;7697;51.630;7.484;2023-02-11T04:57:00;26.67;;;17.77;;
15192;SDS011;7697;51.630;7.484;2023-02-11T05:02:01;24.80;;;18.83;;
15192;SDS011;7697;51.630;7.484;2023-02-11T05:07:05;26.00;;;19.47;;
15192;SDS011;7697;51.630;7.484;2023-02-11T05:12:07;26.27;;;19.40;;
15192;SDS011;7697;51.630;7.484;2023-02-11T05:17:08;31.87;;;21.30;;
15192;SDS011;7697;51.630;7.484;2023-02-11T05:22:11;30.20;;;21.27;;
15192;SDS011;7697;51.630;7.484;2023-02-11T05:27:13;36.60;;;24.03;;
15192;SDS011;7697;51.630;7.484;2023-02-11T05:32:15;31.60;;;21.67;;
15192;SDS011;7697;51.630;7.484;2023-02-11T05:37:18;29.70;;;20.90;;
15192;SDS011;7697;51.630;7.484;2023-02-11T05:42:20;32.87;;;22.77;;
15192;SDS011;7697;51.630;7.484;2023-02-11T05:47:21;35.70;;;23.03;;
15192;SDS011;7697;51.630;7.484;2023-02-11T05:52:24;32.40;;;22.73;;
15192;SDS011;7697;51.630;7.484;2023-02-11T05:57:26;39.10;;;24.97;;
15192;SDS011;7697;51.630;7.484;2023-02-11T06:02:28;28.80;;;22.43;;
15192;SDS011;7697;51.630;7.484;2023-02-11T06:07:31;32.47;;;24.23;;
15192;SDS011;7697;51.630;7.484;2023-02-11T06:12:32;35.27;;;23.80;;
15192;SDS011;7697;51.630;7.484;2023-02-11T06:17:34;33.53;;;23.73;;
15192;SDS011;7697;51.630;7.484;2023-02-11T06:22:38;30.20;;;22.17;;
15192;SDS011;7697;51.630;7.484;2023-02-11T06:27:39;36.10;;;24.07;;
15192;SDS011;7697;51.630;7.484;2023-02-11T06:32:41;34.83;;;24.43;;
15192;SDS011;7697;51.630;7.484;2023-02-11T06:37:44;39.63;;;25.57;;
15192;SDS011;7697;51.630;7.484;2023-02-11T06:42:47;32.07;;;23.70;;
15192;SDS011;7697;51.630;7.484;2023-02-11T06:47:49;38.83;;;26.20;;
15192;SDS011;7697;51.630;7.484;2023-02-11T06:52:53;36.13;;;26.13;;
15192;SDS011;7697;51.630;7.484;2023-02-11T06:57:55;42.73;;;25.03;;
15192;SDS011;7697;51.630;7.484;2023-02-11T07:02:57;40.97;;;27.33;;
15192;SDS011;7697;51.630;7.484;2023-02-11T07:08:00;40.90;;;25.80;;
15192;SDS011;7697;51.630;7.484;2023-02-11T07:13:01;42.10;;;27.30;;
15192;SDS011;7697;51.630;7.484;2023-02-11T07:18:03;41.00;;;26.40;;
15192;SDS011;7697;51.630;7.484;2023-02-11T07:23:06;43.53;;;27.35;;
15192;SDS011;7697;51.630;7.484;2023-02-11T07:28:08;42.25;;;28.90;;
15192;SDS011;7697;51.630;7.484;2023-02-11T07:33:10;40.97;;;27.55;;
15192;SDS011;7697;51.630;7.484;2023-02-11T07:38:13;44.17;;;28.97;;
15192;SDS011;7697;51.630;7.484;2023-02-11T07:43:14;48.10;;;29.00;;
15192;SDS011;7697;51.630;7.484;2023-02-11T07:48:16;51.35;;;29.73;;
15192;SDS011;7697;51.630;7.484;2023-02-11T07:53:19;50.92;;;31.20;;
15192;SDS011;7697;51.630;7.484;2023-02-11T07:58:21;49.87;;;32.43;;
15192;SDS011;7697;51.630;7.484;2023-02-11T08:03:22;48.45;;;31.33;;
15192;SDS011;7697;51.630;7.484;2023-02-11T08:08:26;47.17;;;29.70;;
15192;SDS011;7697;51.630;7.484;2023-02-11T08:13:27;56.97;;;31.80;;
15192;SDS011;7697;51.630;7.484;2023-02-11T08:18:29;45.93;;;30.00;;
15192;SDS011;7697;51.630;7.484;2023-02-11T08:23:34;49.67;;;32.80;;
15192;SDS011;7697;51.630;7.484;2023-02-11T08:28:37;47.13;;;30.00;;
15192;SDS011;7697;51.630;7.484;2023-02-11T08:33:40;52.80;;;33.55;;
15192;SDS011;7697;51.630;7.484;2023-02-11T08:38:43;50.40;;;32.87;;
15192;SDS011;7697;51.630;7.484;2023-02-11T08:43:45;56.10;;;34.27;;
15192;SDS011;7697;51.630;7.484;2023-02-11T08:48:48;46.63;;;29.77;;
15192;SDS011;7697;51.630;7.484;2023-02-11T08:53:52;61.13;;;32.17;;
15192;SDS011;7697;51.630;7.484;2023-02-11T08:58:54;51.53;;;31.17;;
15192;SDS011;7697;51.630;7.484;2023-02-11T09:03:56;57.63;;;33.25;;
15192;SDS011;7697;51.630;7.484;2023-02-11T09:09:00;49.10;;;29.45;;
15192;SDS011;7697;51.630;7.484;2023-02-11T09:14:02;60.40;;;33.33;;
15192;SDS011;7697;51.630;7.484;2023-02-11T09:19:04;53.83;;;31.88;;
15192;SDS011;7697;51.630;7.484;2023-02-11T09:24:08;51.42;;;30.30;;
15192;SDS011;7697;51.630;7.484;2023-02-11T09:29:10;62.20;;;34.83;;
15192;SDS011;7697;51.630;7.484;2023-02-11T09:34:12;57.55;;;34.05;;
15192;SDS011;7697;51.630;7.484;2023-02-11T09:39:16;53.85;;;32.60;;
15192;SDS011;7697;51.630;7.484;2023-02-11T09:44:20;58.17;;;32.88;;
15192;SDS011;7697;51.630;7.484;2023-02-11T09:49:25;50.25;;;31.23;;
15192;SDS011;7697;51.630;7.484;2023-02-11T09:54:36;52.88;;;31.90;;
15192;SDS011;7697;51.630;7.484;2023-02-11T09:59:46;50.70;;;31.15;;
15192;SDS011;7697;51.630;7.484;2023-02-11T10:04:56;52.97;;;30.63;;
15192;SDS011;7697;51.630;7.484;2023-02-11T10:10:16;58.35;;;33.83;;
15192;SDS011;7697;51.630;7.484;2023-02-11T10:15:36;52.78;;;31.33;;
15192;SDS011;7697;51.630;7.484;2023-02-11T10:20:46;51.08;;;32.00;;
15192;SDS011;7697;51.630;7.484;2023-02-11T10:25:57;51.72;;;30.67;;
15192;SDS011;7697;51.630;7.484;2023-02-11T10:31:00;63.72;;;36.03;;
15192;SDS011;7697;51.630;7.484;2023-02-11T10:36:05;53.33;;;32.35;;
15192;SDS011;7697;51.630;7.484;2023-02-11T10:41:20;63.58;;;36.00;;
15192;SDS011;7697;51.630;7.484;2023-02-11T10:46:28;55.70;;;33.10;;
15192;SDS011;7697;51.630;7.484;2023-02-11T10:51:32;55.97;;;31.73;;
15192;SDS011;7697;51.630;7.484;2023-02-11T10:56:36;52.08;;;32.72;;
15192;SDS011;7697;51.630;7.484;2023-02-11T11:01:40;53.92;;;31.20;;
15192;SDS011;7697;51.630;7.484;2023-02-11T11:06:45;56.60;;;32.00;;
15192;SDS011;7697;51.630;7.484;2023-02-11T11:11:51;55.28;;;32.92;;
15192;SDS011;7697;51.630;7.484;2023-02-11T11:16:54;54.80;;;32.35;;
15192;SDS011;7697;51.630;7.484;2023-02-11T11:21:55;45.78;;;30.10;;
15192;SDS011;7697;51.630;7.484;2023-02-11T11:26:59;53.93;;;33.10;;
15192;SDS011;7697;51.630;7.484;2023-02-11T11:32:04;52.05;;;31.45;;
15192;SDS011;7697;51.630;7.484;2023-02-11T11:37:12;53.17;;;31.88;;
15192;SDS011;7697;51.630;7.484;2023-02-11T11:42:30;55.80;;;33.13;;
15192;SDS011;7697;51.630;7.484;2023-02-11T11:47:35;58.72;;;32.55;;
15192;SDS011;7697;51.630;7.484;2023-02-11T11:52:43;52.88;;;31.45;;
15192;SDS011;7697;51.630;7.484;2023-02-11T11:57:49;51.28;;;32.25;;
15192;SDS011;7697;51.630;7.484;2023-02-11T12:02:59;57.25;;;35.50;;
15192;SDS011;7697;51.630;7.484;2023-02-11T12:08:24;63.97;;;38.83;;
15192;SDS011;7697;51.630;7.484;2023-02-11T12:13:41;56.55;;;34.42;;
15192;SDS011;7697;51.630;7.484;2023-02-11T12:19:06;49.70;;;31.90;;
15192;SDS011;7697;51.630;7.484;2023-02-11T12:24:29;49.03;;;31.95;;
15192;SDS011;7697;51.630;7.484;2023-02-11T12:29:47;48.53;;;32.15;;
15192;SDS011;7697;51.630;7.484;2023-02-11T12:35:14;45.58;;;30.02;;
15192;SDS011;7697;51.630;7.484;2023-02-11T12:40:24;43.95;;;28.98;;
15192;SDS011;7697;51.630;7.484;2023-02-11T12:45:40;40.63;;;27.15;;
15192;SDS011;7697;51.630;7.484;2023-02-11T12:50:52;41.50;;;27.70;;
15192;SDS011;7697;51.630;7.484;2023-02-11T12:55:59;41.50;;;28.73;;
15192;SDS011;7697;51.630;7.484;2023-02-11T13:01:07;44.95;;;28.65;;
15192;SDS011;7697;51.630;7.484;2023-02-11T13:06:11;37.08;;;25.55;;
15192;SDS011;7697;51.630;7.484;2023-02-11T13:11:19;42.80;;;27.08;;
15192;SDS011;7697;51.630;7.484;2023-02-11T13:16:29;40.50;;;26.40;;
15192;SDS011;7697;51.630;7.484;2023-02-11T13:21:39;43.90;;;29.88;;
15192;SDS011;7697;51.630;7.484;2023-02-11T13:26:51;49.88;;;31.90;;
15192;SDS011;7697;51.630;7.484;2023-02-11T13:32:08;44.33;;;28.85;;
15192;SDS011;7697;51.630;7.484;2023-02-11T13:37:16;44.60;;;28.70;;
15192;SDS011;7697;51.630;7.484;2023-02-11T13:42:21;40.25;;;27.10;;
15192;SDS011;7697;51.630;7.484;2023-02-11T13:47:29;34.38;;;24.15;;
15192;SDS011;7697;51.630;7.484;2023-02-11T13:52:33;38.38;;;25.55;;
15192;SDS011;7697;51.630;7.484;2023-02-11T13:57:38;37.78;;;25.63;;
15192;SDS011;7697;51.630;7.484;2023-02-11T14:02:42;35.63;;;25.20;;
15192;SDS011;7697;51.630;7.484;2023-02-11T14:08:14;40.28;;;27.67;;
15192;SDS011;7697;51.630;7.484;2023-02-11T14:19:05;49.53;;;31.70;;
15192;SDS011;7697;51.630;7.484;2023-02-11T14:29:49;43.03;;;28.73;;
15192;SDS011;7697;51.630;7.484;2023-02-11T14:35:03;40.60;;;26.70;;
15192;SDS011;7697;51.630;7.484;2023-02-11T14:40:16;40.17;;;26.27;;
15192;SDS011;7697;51.630;7.484;2023-02-11T14:45:25;35.88;;;26.02;;
15192;SDS011;7697;51.630;7.484;2023-02-11T14:50:33;38.75;;;25.77;;
15192;SDS011;7697;51.630;7.484;2023-02-11T14:55:40;34.35;;;22.80;;
15192;SDS011;7697;51.630;7.484;2023-02-11T15:00:46;31.17;;;23.13;;
15192;SDS011;7697;51.630;7.484;2023-02-11T15:05:54;29.92;;;21.80;;
15192;SDS011;7697;51.630;7.484;2023-02-11T15:10:56;29.55;;;20.77;;
15192;SDS011;7697;51.630;7.484;2023-02-11T15:15:59;30.20;;;21.90;;
15192;SDS011;7697;51.630;7.484;2023-02-11T15:21:06;29.05;;;19.88;;
15192;SDS011;7697;51.630;7.484;2023-02-11T15:26:12;28.00;;;20.42;;
15192;SDS011;7697;51.630;7.484;2023-02-11T15:31:15;28.52;;;20.88;;
15192;SDS011;7697;51.630;7.484;2023-02-11T15:36:20;28.88;;;21.70;;
15192;SDS011;7697;51.630;7.484;2023-02-11T15:41:32;24.13;;;18.67;;
15192;SDS011;7697;51.630;7.484;2023-02-11T15:46:36;24.88;;;18.60;;
15192;SDS011;7697;51.630;7.484;2023-02-11T15:51:41;32.22;;;24.98;;
15192;SDS011;7697;51.630;7.484;2023-02-11T15:56:46;27.80;;;20.17;;
15192;SDS011;7697;51.630;7.484;2023-02-11T16:01:50;24.67;;;18.45;;
15192;SDS011;7697;51.630;7.484;2023-02-11T16:06:54;24.05;;;17.23;;
15192;SDS011;7697;51.630;7.484;2023-02-11T16:11:57;20.70;;;16.23;;
15192;SDS011;7697;51.630;7.484;2023-02-11T16:17:01;21.77;;;17.08;;
15192;SDS011;7697;51.630;7.484;2023-02-11T16:22:08;19.08;;;15.20;;
15192;SDS011;7697;51.630;7.484;2023-02-11T16:27:17;21.42;;;16.30;;
15192;SDS011;7697;51.630;7.484;2023-02-11T16:32:22;25.48;;;17.33;;
15192;SDS011;7697;51.630;7.484;2023-02-11T16:37:27;22.13;;;16.58;;
15192;SDS011;7697;51.630;7.484;2023-02-11T16:42:29;19.23;;;15.00;;
15192;SDS011;7697;51.630;7.484;2023-02-11T16:47:31;21.88;;;17.40;;
15192;SDS011;7697;51.630;7.484;2023-02-11T16:52:36;20.80;;;17.15;;
15192;SDS011;7697;51.630;7.484;2023-02-11T16:57:38;24.42;;;17.27;;
15192;SDS011;7697;51.630;7.484;2023-02-11T17:02:39;26.35;;;18.98;;
15192;SDS011;7697;51.630;7.484;2023-02-11T17:07:43;24.50;;;18.10;;
15192;SDS011;7697;51.630;7.484;2023-02-11T17:12:44;26.95;;;18.83;;
15192;SDS011;7697;51.630;7.484;2023-02-11T17:17:46;26.45;;;19.90;;
15192;SDS011;7697;51.630;7.484;2023-02-11T17:22:49;26.60;;;19.33;;
15192;SDS011;7697;51.630;7.484;2023-02-11T17:27:51;26.23;;;19.15;;
15192;SDS011;7697;51.630;7.484;2023-02-11T17:32:53;26.17;;;18.70;;
15192;SDS011;7697;51.630;7.484;2023-02-11T17:37:57;24.92;;;17.40;;
15192;SDS011;7697;51.630;7.484;2023-02-11T17:43:00;35.45;;;24.42;;
15192;SDS011;7697;51.630;7.484;2023-02-11T17:48:02;35.35;;;24.30;;
15192;SDS011;7697;51.630;7.484;2023-02-11T17:53:05;38.00;;;23.30;;
15192;SDS011;7697;51.630;7.484;2023-02-11T17:58:07;29.23;;;20.70;;
15192;SDS011;7697;51.630;7.484;2023-02-11T18:03:08;36.60;;;24.67;;
15192;SDS011;7697;51.630;7.484;2023-02-11T18:08:11;36.78;;;25.15;;
15192;SDS011;7697;51.630;7.484;2023-02-11T18:13:13;36.88;;;25.23;;
15192;SDS011;7697;51.630;7.484;2023-02-11T18:18:15;37.20;;;25.73;;
15192;SDS011;7697;51.630;7.484;2023-02-11T18:23:18;41.92;;;26.65;;
15192;SDS011;7697;51.630;7.484;2023-02-11T18:28:20;37.95;;;25.13;;
15192;SDS011;7697;51.630;7.484;2023-02-11T18:33:22;36.45;;;24.35;;
15192;SDS011;7697;51.630;7.484;2023-02-11T18:38:25;39.03;;;26.45;;
15192;SDS011;7697;51.630;7.484;2023-02-11T18:43:26;41.58;;;27.75;;
15192;SDS011;7697;51.630;7.484;2023-02-11T18:48:30;49.67;;;29.40;;
15192;SDS011;7697;51.630;7.484;2023-02-11T18:53:33;43.83;;;29.52;;
15192;SDS011;7697;51.630;7.484;2023-02-11T18:58:35;43.70;;;28.38;;
15192;SDS011;7697;51.630;7.484;2023-02-11T19:03:37;38.50;;;26.40;;
15192;SDS011;7697;51.630;7.484;2023-02-11T19:08:40;37.83;;;25.13;;
15192;SDS011;7697;51.630;7.484;2023-02-11T19:13:42;35.40;;;25.02;;
15192;SDS011;7697;51.630;7.484;2023-02-11T19:18:44;36.08;;;25.50;;
15192;SDS011;7697;51.630;7.484;2023-02-11T19:23:47;42.40;;;27.40;;
15192;SDS011;7697;51.630;7.484;2023-02-11T19:28:48;45.08;;;29.05;;
15192;SDS011;7697;51.630;7.484;2023-02-11T19:33:50;40.90;;;26.67;;
15192;SDS011;7697;51.630;7.484;2023-02-11T19:38:53;35.63;;;24.73;;
15192;SDS011;7697;51.630;7.484;2023-02-11T19:43:55;41.22;;;25.88;;
15192;SDS011;7697;51.630;7.484;2023-02-11T19:48:57;40.72;;;26.55;;
15192;SDS011;7697;51.630;7.484;2023-02-11T19:54:01;36.35;;;24.65;;
15192;SDS011;7697;51.630;7.484;2023-02-11T19:59:03;39.45;;;26.60;;
15192;SDS011;7697;51.630;7.484;2023-02-11T20:04:07;41.15;;;27.50;;
15192;SDS011;7697;51.630;7.484;2023-02-11T20:09:12;45.15;;;29.25;;
15192;SDS011;7697;51.630;7.484;2023-02-11T20:14:14;36.17;;;26.10;;
15192;SDS011;7697;51.630;7.484;2023-02-11T20:19:17;42.40;;;29.13;;
15192;SDS011;7697;51.630;7.484;2023-02-11T20:24:22;40.13;;;26.63;;
15192;SDS011;7697;51.630;7.484;2023-02-11T20:29:24;45.13;;;29.70;;
15192;SDS011;7697;51.630;7.484;2023-02-11T20:34:30;44.85;;;29.15;;
15192;SDS011;7697;51.630;7.484;2023-02-11T20:39:33;49.00;;;30.98;;
15192;SDS011;7697;51.630;7.484;2023-02-11T20:44:36;45.83;;;30.15;;
15192;SDS011;7697;51.630;7.484;2023-02-11T20:49:38;43.78;;;27.70;;
15192;SDS011;7697;51.630;7.484;2023-02-11T20:54:41;42.78;;;28.65;;
15192;SDS011;7697;51.630;7.484;2023-02-11T20:59:42;38.03;;;27.25;;
15192;SDS011;7697;51.630;7.484;2023-02-11T21:04:44;36.20;;;26.73;;
15192;SDS011;7697;51.630;7.484;2023-02-11T21:09:47;42.42;;;30.02;;
15192;SDS011;7697;51.630;7.484;2023-02-11T21:14:49;41.70;;;29.38;;
15192;SDS011;7697;51.630;7.484;2023-02-11T21:19:50;47.95;;;32.22;;
15192;SDS011;7697;51.630;7.484;2023-02-11T21:24:53;42.50;;;28.40;;
15192;SDS011;7697;51.630;7.484;2023-02-11T21:29:55;42.75;;;29.23;;
15192;SDS011;7697;51.630;7.484;2023-02-11T21:34:56;47.08;;;31.83;;
15192;SDS011;7697;51.630;7.484;2023-02-11T21:40:00;44.58;;;29.45;;
15192;SDS011;7697;51.630;7.484;2023-02-11T21:45:01;48.75;;;33.13;;
15192;SDS011;7697;51.630;7.484;2023-02-11T21:50:04;45.88;;;30.95;;
15192;SDS011;7697;51.630;7.484;2023-02-11T21:55:08;46.45;;;31.42;;
15192;SDS011;7697;51.630;7.484;2023-02-11T22:00:10;39.30;;;27.48;;
15192;SDS011;7697;51.630;7.484;2023-02-11T22:05:13;41.53;;;29.58;;
15192;SDS011;7697;51.630;7.484;2023-02-11T22:10:16;43.38;;;31.10;;
15192;SDS011;7697;51.630;7.484;2023-02-11T22:15:18;44.28;;;29.63;;
15192;SDS011;7697;51.630;7.484;2023-02-11T22:20:19;41.88;;;28.63;;
15192;SDS011;7697;51.630;7.484;2023-02-11T22:25:22;39.95;;;28.45;;
15192;SDS011;7697;51.630;7.484;2023-02-11T22:30:24;38.53;;;28.02;;
15192;SDS011;7697;51.630;7.484;2023-02-11T22:35:26;37.42;;;26.52;;
15192;SDS011;7697;51.630;7.484;2023-02-11T22:40:29;40.40;;;28.15;;
15192;SDS011;7697;51.630;7.484;2023-02-11T22:45:32;35.90;;;26.75;;
15192;SDS011;7697;51.630;7.484;2023-02-11T22:50:33;37.00;;;24.90;;
15192;SDS011;7697;51.630;7.484;2023-02-11T22:55:37;37.03;;;25.55;;
15192;SDS011;7697;51.630;7.484;2023-02-11T23:00:40;38.80;;;28.58;;
15192;SDS011;7697;51.630;7.484;2023-02-11T23:05:42;35.70;;;26.70;;
15192;SDS011;7697;51.630;7.484;2023-02-11T23:10:45;42.97;;;28.98;;
15192;SDS011;7697;51.630;7.484;2023-02-11T23:15:47;38.55;;;27.83;;
15192;SDS011;7697;51.630;7.484;2023-02-11T23:20:48;34.45;;;24.30;;
15192;SDS011;7697;51.630;7.484;2023-02-11T23:25:53;29.85;;;22.20;;
15192;SDS011;7697;51.630;7.484;2023-02-11T23:30:55;29.02;;;22.35;;
15192;SDS011;7697;51.630;7.484;2023-02-11T23:35:56;28.23;;;21.67;;
15192;SDS011;7697;51.630;7.484;2023-02-11T23:40:59;30.35;;;22.65;;
15192;SDS011;7697;51.630;7.484;2023-02-11T23:46:01;27.08;;;20.85;;
15192;SDS011;7697;51.630;7.484;2023-02-11T23:51:03;25.55;;;20.23;;
15192;SDS011;7697;51.630;7.484;2023-02-11T23:56:08;30.55;;;22.90;;
